sensor_id;sensor_type;location;lat;lon;timestamp;P1;durP1;ratioP1;P2;durP2;ratioP2
39540;SDS011;25219;52.244;21.006;2023-04-24T00:01:10;12.47;;;6.50;;
39540;SDS011;25219;52.244;21.006;2023-04-24T00:03:35;20.02;;;7.57;;
39540;SDS011;25219;52.244;21.006;2023-04-24T00:06:01;12.32;;;6.10;;
39540;SDS011;25219;52.244;21.006;2023-04-24T00:08:27;9.95;;;6.22;;
39540;SDS011;25219;52.244;21.006;2023-04-24T00:10:52;12.18;;;6.38;;
39540;SDS011;25219;52.244;21.006;2023-04-24T00:13:17;11.90;;;5.87;;
39540;SDS011;25219;52.244;21.006;2023-04-24T00:15:43;10.35;;;6.57;;
39540;SDS011;25219;52.244;21.006;2023-04-24T00:18:08;9.83;;;6.63;;
39540;SDS011;25219;52.244;21.006;2023-04-24T00:20:33;12.63;;;7.13;;
39540;SDS011;25219;52.244;21.006;2023-04-24T00:23:00;10.80;;;6.22;;
39540;SDS011;25219;52.244;21.006;2023-04-24T00:25:25;12.48;;;6.45;;
39540;SDS011;25219;52.244;21.006;2023-04-24T00:27:50;12.83;;;6.27;;
39540;SDS011;25219;52.244;21.006;2023-04-24T00:30:16;16.80;;;7.60;;
39540;SDS011;25219;52.244;21.006;2023-04-24T00:32:41;9.48;;;6.05;;
39540;SDS011;25219;52.244;21.006;2023-04-24T00:35:06;11.00;;;7.03;;
39540;SDS011;25219;52.244;21.006;2023-04-24T00:37:32;10.63;;;6.15;;
39540;SDS011;25219;52.244;21.006;2023-04-24T00:39:57;10.73;;;7.00;;
39540;SDS011;25219;52.244;21.006;2023-04-24T00:42:22;11.48;;;6.50;;
39540;SDS011;25219;52.244;21.006;2023-04-24T00:44:47;8.88;;;5.80;;
39540;SDS011;25219;52.244;21.006;2023-04-24T00:47:13;11.93;;;6.70;;
39540;SDS011;25219;52.244;21.006;2023-04-24T00:49:39;13.45;;;6.93;;
39540;SDS011;25219;52.244;21.006;2023-04-24T00:52:04;10.35;;;6.68;;
39540;SDS011;25219;52.244;21.006;2023-04-24T00:54:32;12.05;;;6.40;;
39540;SDS011;25219;52.244;21.006;2023-04-24T00:56:57;9.85;;;6.50;;
39540;SDS011;25219;52.244;21.006;2023-04-24T00:59:23;15.73;;;7.30;;
39540;SDS011;25219;52.244;21.006;2023-04-24T01:01:48;13.10;;;7.00;;
39540;SDS011;25219;52.244;21.006;2023-04-24T01:04:13;14.33;;;6.67;;
39540;SDS011;25219;52.244;21.006;2023-04-24T01:06:39;12.80;;;6.45;;
39540;SDS011;25219;52.244;21.006;2023-04-24T01:09:05;12.00;;;6.47;;
39540;SDS011;25219;52.244;21.006;2023-04-24T01:11:30;11.63;;;6.70;;
39540;SDS011;25219;52.244;21.006;2023-04-24T01:13:56;10.43;;;6.38;;
39540;SDS011;25219;52.244;21.006;2023-04-24T01:16:21;12.88;;;6.07;;
39540;SDS011;25219;52.244;21.006;2023-04-24T01:18:46;11.37;;;6.57;;
39540;SDS011;25219;52.244;21.006;2023-04-24T01:21:13;17.95;;;6.68;;
39540;SDS011;25219;52.244;21.006;2023-04-24T01:23:38;14.55;;;6.28;;
39540;SDS011;25219;52.244;21.006;2023-04-24T01:26:04;11.33;;;6.63;;
39540;SDS011;25219;52.244;21.006;2023-04-24T01:28:29;10.77;;;7.57;;
39540;SDS011;25219;52.244;21.006;2023-04-24T01:30:54;14.40;;;6.40;;
39540;SDS011;25219;52.244;21.006;2023-04-24T01:33:20;14.88;;;6.53;;
39540;SDS011;25219;52.244;21.006;2023-04-24T01:35:46;11.40;;;6.80;;
39540;SDS011;25219;52.244;21.006;2023-04-24T01:38:11;12.30;;;6.90;;
39540;SDS011;25219;52.244;21.006;2023-04-24T01:40:36;14.63;;;6.90;;
39540;SDS011;25219;52.244;21.006;2023-04-24T01:43:01;9.73;;;6.43;;
39540;SDS011;25219;52.244;21.006;2023-04-24T01:45:27;10.40;;;6.70;;
39540;SDS011;25219;52.244;21.006;2023-04-24T01:47:52;15.40;;;7.23;;
39540;SDS011;25219;52.244;21.006;2023-04-24T01:50:18;13.73;;;6.82;;
39540;SDS011;25219;52.244;21.006;2023-04-24T01:52:43;12.07;;;6.53;;
39540;SDS011;25219;52.244;21.006;2023-04-24T01:55:09;11.82;;;6.72;;
39540;SDS011;25219;52.244;21.006;2023-04-24T01:57:34;13.15;;;7.18;;
39540;SDS011;25219;52.244;21.006;2023-04-24T02:00:00;12.15;;;7.15;;
39540;SDS011;25219;52.244;21.006;2023-04-24T02:02:25;10.40;;;7.10;;
39540;SDS011;25219;52.244;21.006;2023-04-24T02:04:55;11.90;;;7.05;;
39540;SDS011;25219;52.244;21.006;2023-04-24T02:07:20;15.95;;;7.30;;
39540;SDS011;25219;52.244;21.006;2023-04-24T02:09:45;12.87;;;7.53;;
39540;SDS011;25219;52.244;21.006;2023-04-24T02:12:10;12.30;;;7.10;;
39540;SDS011;25219;52.244;21.006;2023-04-24T02:14:36;10.90;;;7.40;;
39540;SDS011;25219;52.244;21.006;2023-04-24T02:17:01;11.37;;;6.80;;
39540;SDS011;25219;52.244;21.006;2023-04-24T02:19:26;12.00;;;7.30;;
39540;SDS011;25219;52.244;21.006;2023-04-24T02:21:51;10.40;;;7.33;;
39540;SDS011;25219;52.244;21.006;2023-04-24T02:24:16;14.60;;;7.73;;
39540;SDS011;25219;52.244;21.006;2023-04-24T02:26:42;13.87;;;7.63;;
39540;SDS011;25219;52.244;21.006;2023-04-24T02:29:07;11.60;;;6.83;;
39540;SDS011;25219;52.244;21.006;2023-04-24T02:31:32;12.60;;;7.43;;
39540;SDS011;25219;52.244;21.006;2023-04-24T02:33:57;14.35;;;6.95;;
39540;SDS011;25219;52.244;21.006;2023-04-24T02:36:22;11.60;;;7.07;;
39540;SDS011;25219;52.244;21.006;2023-04-24T02:38:48;11.03;;;7.40;;
39540;SDS011;25219;52.244;21.006;2023-04-24T02:41:13;12.83;;;7.37;;
39540;SDS011;25219;52.244;21.006;2023-04-24T02:43:38;11.93;;;7.03;;
39540;SDS011;25219;52.244;21.006;2023-04-24T02:46:03;14.63;;;7.10;;
39540;SDS011;25219;52.244;21.006;2023-04-24T02:48:29;13.77;;;7.10;;
39540;SDS011;25219;52.244;21.006;2023-04-24T02:50:54;11.27;;;7.00;;
39540;SDS011;25219;52.244;21.006;2023-04-24T02:53:19;13.98;;;7.10;;
39540;SDS011;25219;52.244;21.006;2023-04-24T02:55:45;10.75;;;6.80;;
39540;SDS011;25219;52.244;21.006;2023-04-24T02:58:11;12.15;;;6.95;;
39540;SDS011;25219;52.244;21.006;2023-04-24T03:00:37;14.35;;;7.43;;
39540;SDS011;25219;52.244;21.006;2023-04-24T03:03:02;12.73;;;6.57;;
39540;SDS011;25219;52.244;21.006;2023-04-24T03:05:28;12.83;;;7.50;;
39540;SDS011;25219;52.244;21.006;2023-04-24T03:07:53;14.32;;;7.40;;
39540;SDS011;25219;52.244;21.006;2023-04-24T03:10:18;13.83;;;7.00;;
39540;SDS011;25219;52.244;21.006;2023-04-24T03:12:43;11.07;;;6.60;;
39540;SDS011;25219;52.244;21.006;2023-04-24T03:15:09;13.52;;;7.45;;
39540;SDS011;25219;52.244;21.006;2023-04-24T03:17:34;13.63;;;7.10;;
39540;SDS011;25219;52.244;21.006;2023-04-24T03:20:00;14.63;;;7.13;;
39540;SDS011;25219;52.244;21.006;2023-04-24T03:22:25;15.20;;;7.20;;
39540;SDS011;25219;52.244;21.006;2023-04-24T03:24:50;12.43;;;6.97;;
39540;SDS011;25219;52.244;21.006;2023-04-24T03:27:15;12.53;;;7.33;;
39540;SDS011;25219;52.244;21.006;2023-04-24T03:29:41;12.63;;;7.37;;
39540;SDS011;25219;52.244;21.006;2023-04-24T03:32:06;13.13;;;7.47;;
39540;SDS011;25219;52.244;21.006;2023-04-24T03:34:31;11.87;;;7.07;;
39540;SDS011;25219;52.244;21.006;2023-04-24T03:36:56;12.00;;;6.63;;
39540;SDS011;25219;52.244;21.006;2023-04-24T03:39:21;13.20;;;7.87;;
39540;SDS011;25219;52.244;21.006;2023-04-24T03:41:47;15.80;;;7.47;;
39540;SDS011;25219;52.244;21.006;2023-04-24T03:44:12;10.53;;;6.73;;
39540;SDS011;25219;52.244;21.006;2023-04-24T03:46:37;13.93;;;7.70;;
39540;SDS011;25219;52.244;21.006;2023-04-24T03:49:02;16.23;;;7.43;;
39540;SDS011;25219;52.244;21.006;2023-04-24T03:51:27;11.90;;;7.70;;
39540;SDS011;25219;52.244;21.006;2023-04-24T03:53:55;13.15;;;7.63;;
39540;SDS011;25219;52.244;21.006;2023-04-24T03:56:20;11.55;;;7.78;;
39540;SDS011;25219;52.244;21.006;2023-04-24T03:58:45;11.82;;;7.65;;
39540;SDS011;25219;52.244;21.006;2023-04-24T04:01:10;13.97;;;7.80;;
39540;SDS011;25219;52.244;21.006;2023-04-24T04:03:36;11.65;;;7.40;;
39540;SDS011;25219;52.244;21.006;2023-04-24T04:06:02;11.10;;;7.90;;
39540;SDS011;25219;52.244;21.006;2023-04-24T04:08:27;17.50;;;8.15;;
39540;SDS011;25219;52.244;21.006;2023-04-24T04:10:52;15.17;;;7.87;;
39540;SDS011;25219;52.244;21.006;2023-04-24T04:13:17;11.53;;;7.60;;
39540;SDS011;25219;52.244;21.006;2023-04-24T04:15:43;19.90;;;8.13;;
39540;SDS011;25219;52.244;21.006;2023-04-24T04:18:08;15.93;;;7.78;;
39540;SDS011;25219;52.244;21.006;2023-04-24T04:20:33;16.90;;;7.88;;
39540;SDS011;25219;52.244;21.006;2023-04-24T04:22:59;11.27;;;7.67;;
39540;SDS011;25219;52.244;21.006;2023-04-24T04:25:24;13.90;;;8.10;;
39540;SDS011;25219;52.244;21.006;2023-04-24T04:27:49;17.45;;;9.23;;
39540;SDS011;25219;52.244;21.006;2023-04-24T04:30:16;13.02;;;7.22;;
39540;SDS011;25219;52.244;21.006;2023-04-24T04:32:41;10.77;;;7.32;;
39540;SDS011;25219;52.244;21.006;2023-04-24T04:35:06;14.90;;;8.40;;
39540;SDS011;25219;52.244;21.006;2023-04-24T04:37:32;12.63;;;7.85;;
39540;SDS011;25219;52.244;21.006;2023-04-24T04:40:00;11.32;;;7.32;;
39540;SDS011;25219;52.244;21.006;2023-04-24T04:42:25;15.63;;;7.65;;
39540;SDS011;25219;52.244;21.006;2023-04-24T04:44:51;10.02;;;7.03;;
39540;SDS011;25219;52.244;21.006;2023-04-24T04:47:17;21.77;;;8.38;;
39540;SDS011;25219;52.244;21.006;2023-04-24T04:49:43;16.98;;;7.72;;
39540;SDS011;25219;52.244;21.006;2023-04-24T04:52:08;14.50;;;7.63;;
39540;SDS011;25219;52.244;21.006;2023-04-24T04:54:33;15.80;;;8.15;;
39540;SDS011;25219;52.244;21.006;2023-04-24T04:56:58;15.57;;;7.10;;
39540;SDS011;25219;52.244;21.006;2023-04-24T04:59:25;13.05;;;8.25;;
39540;SDS011;25219;52.244;21.006;2023-04-24T05:01:50;12.87;;;7.97;;
39540;SDS011;25219;52.244;21.006;2023-04-24T05:04:15;12.60;;;7.53;;
39540;SDS011;25219;52.244;21.006;2023-04-24T05:06:41;17.83;;;8.50;;
39540;SDS011;25219;52.244;21.006;2023-04-24T05:09:06;13.77;;;7.70;;
39540;SDS011;25219;52.244;21.006;2023-04-24T05:11:32;13.32;;;7.78;;
39540;SDS011;25219;52.244;21.006;2023-04-24T05:13:57;17.27;;;7.17;;
39540;SDS011;25219;52.244;21.006;2023-04-24T05:16:22;12.93;;;7.27;;
39540;SDS011;25219;52.244;21.006;2023-04-24T05:18:47;15.47;;;7.57;;
39540;SDS011;25219;52.244;21.006;2023-04-24T05:21:13;13.43;;;7.70;;
39540;SDS011;25219;52.244;21.006;2023-04-24T05:23:38;17.57;;;8.33;;
39540;SDS011;25219;52.244;21.006;2023-04-24T05:26:03;18.40;;;8.13;;
39540;SDS011;25219;52.244;21.006;2023-04-24T05:28:28;23.67;;;7.97;;
39540;SDS011;25219;52.244;21.006;2023-04-24T05:30:54;13.90;;;7.40;;
39540;SDS011;25219;52.244;21.006;2023-04-24T05:33:20;21.25;;;7.70;;
39540;SDS011;25219;52.244;21.006;2023-04-24T05:35:47;11.77;;;7.32;;
39540;SDS011;25219;52.244;21.006;2023-04-24T05:38:12;14.00;;;7.73;;
39540;SDS011;25219;52.244;21.006;2023-04-24T05:40:37;14.90;;;7.90;;
39540;SDS011;25219;52.244;21.006;2023-04-24T05:43:03;19.02;;;7.45;;
39540;SDS011;25219;52.244;21.006;2023-04-24T05:45:28;12.90;;;6.87;;
39540;SDS011;25219;52.244;21.006;2023-04-24T05:47:53;12.88;;;7.88;;
39540;SDS011;25219;52.244;21.006;2023-04-24T05:50:19;14.60;;;7.72;;
39540;SDS011;25219;52.244;21.006;2023-04-24T05:52:44;16.17;;;7.23;;
39540;SDS011;25219;52.244;21.006;2023-04-24T05:55:09;15.65;;;8.00;;
39540;SDS011;25219;52.244;21.006;2023-04-24T05:57:34;20.63;;;7.83;;
39540;SDS011;25219;52.244;21.006;2023-04-24T06:00:00;19.90;;;7.80;;
39540;SDS011;25219;52.244;21.006;2023-04-24T06:02:25;18.13;;;8.03;;
39540;SDS011;25219;52.244;21.006;2023-04-24T06:04:50;16.50;;;7.80;;
39540;SDS011;25219;52.244;21.006;2023-04-24T06:07:16;18.02;;;7.53;;
39540;SDS011;25219;52.244;21.006;2023-04-24T06:09:42;21.92;;;7.82;;
39540;SDS011;25219;52.244;21.006;2023-04-24T06:12:07;14.70;;;7.70;;
39540;SDS011;25219;52.244;21.006;2023-04-24T06:14:33;14.43;;;7.95;;
39540;SDS011;25219;52.244;21.006;2023-04-24T06:16:59;17.60;;;9.00;;
39540;SDS011;25219;52.244;21.006;2023-04-24T06:19:24;15.35;;;7.97;;
39540;SDS011;25219;52.244;21.006;2023-04-24T06:21:49;13.93;;;7.67;;
39540;SDS011;25219;52.244;21.006;2023-04-24T06:24:15;13.18;;;7.50;;
39540;SDS011;25219;52.244;21.006;2023-04-24T06:26:41;14.20;;;7.47;;
39540;SDS011;25219;52.244;21.006;2023-04-24T06:29:06;23.30;;;8.77;;
39540;SDS011;25219;52.244;21.006;2023-04-24T06:31:32;12.90;;;7.60;;
39540;SDS011;25219;52.244;21.006;2023-04-24T06:34:01;17.55;;;7.20;;
39540;SDS011;25219;52.244;21.006;2023-04-24T06:36:26;9.97;;;7.40;;
39540;SDS011;25219;52.244;21.006;2023-04-24T06:38:52;13.23;;;7.72;;
39540;SDS011;25219;52.244;21.006;2023-04-24T06:41:18;15.77;;;7.77;;
39540;SDS011;25219;52.244;21.006;2023-04-24T06:43:43;20.13;;;7.67;;
39540;SDS011;25219;52.244;21.006;2023-04-24T06:46:08;12.60;;;7.85;;
39540;SDS011;25219;52.244;21.006;2023-04-24T06:48:33;14.32;;;7.50;;
39540;SDS011;25219;52.244;21.006;2023-04-24T06:50:59;15.73;;;8.10;;
39540;SDS011;25219;52.244;21.006;2023-04-24T06:53:24;20.87;;;8.77;;
39540;SDS011;25219;52.244;21.006;2023-04-24T06:55:50;19.15;;;8.45;;
39540;SDS011;25219;52.244;21.006;2023-04-24T06:58:15;15.23;;;7.57;;
39540;SDS011;25219;52.244;21.006;2023-04-24T07:00:41;46.97;;;9.73;;
39540;SDS011;25219;52.244;21.006;2023-04-24T07:03:06;48.95;;;9.27;;
39540;SDS011;25219;52.244;21.006;2023-04-24T07:05:31;21.33;;;7.80;;
39540;SDS011;25219;52.244;21.006;2023-04-24T07:07:58;74.13;;;11.75;;
39540;SDS011;25219;52.244;21.006;2023-04-24T07:10:24;34.33;;;8.40;;
39540;SDS011;25219;52.244;21.006;2023-04-24T07:12:49;28.45;;;8.45;;
39540;SDS011;25219;52.244;21.006;2023-04-24T07:15:14;20.58;;;7.43;;
39540;SDS011;25219;52.244;21.006;2023-04-24T07:17:40;11.60;;;7.53;;
39540;SDS011;25219;52.244;21.006;2023-04-24T07:20:08;12.70;;;6.32;;
39540;SDS011;25219;52.244;21.006;2023-04-24T07:22:35;17.75;;;7.88;;
39540;SDS011;25219;52.244;21.006;2023-04-24T07:25:00;18.93;;;8.07;;
39540;SDS011;25219;52.244;21.006;2023-04-24T07:27:26;18.40;;;7.80;;
39540;SDS011;25219;52.244;21.006;2023-04-24T07:29:51;17.00;;;7.90;;
39540;SDS011;25219;52.244;21.006;2023-04-24T07:32:16;20.30;;;8.43;;
39540;SDS011;25219;52.244;21.006;2023-04-24T07:34:42;19.30;;;7.80;;
39540;SDS011;25219;52.244;21.006;2023-04-24T07:37:07;13.90;;;7.37;;
39540;SDS011;25219;52.244;21.006;2023-04-24T07:39:32;17.08;;;7.55;;
39540;SDS011;25219;52.244;21.006;2023-04-24T07:41:58;14.93;;;7.80;;
39540;SDS011;25219;52.244;21.006;2023-04-24T07:44:24;19.23;;;8.85;;
39540;SDS011;25219;52.244;21.006;2023-04-24T07:46:49;17.30;;;8.05;;
39540;SDS011;25219;52.244;21.006;2023-04-24T07:49:14;15.18;;;7.53;;
39540;SDS011;25219;52.244;21.006;2023-04-24T07:51:40;26.08;;;7.95;;
39540;SDS011;25219;52.244;21.006;2023-04-24T07:54:06;21.73;;;8.60;;
39540;SDS011;25219;52.244;21.006;2023-04-24T07:56:31;21.40;;;7.60;;
39540;SDS011;25219;52.244;21.006;2023-04-24T07:58:56;18.38;;;7.68;;
39540;SDS011;25219;52.244;21.006;2023-04-24T08:01:22;21.38;;;7.95;;
39540;SDS011;25219;52.244;21.006;2023-04-24T08:03:47;14.00;;;6.20;;
39540;SDS011;25219;52.244;21.006;2023-04-24T08:06:12;18.77;;;6.93;;
39540;SDS011;25219;52.244;21.006;2023-04-24T08:08:37;19.50;;;7.67;;
39540;SDS011;25219;52.244;21.006;2023-04-24T08:11:03;12.70;;;6.88;;
39540;SDS011;25219;52.244;21.006;2023-04-24T08:13:28;16.90;;;6.88;;
39540;SDS011;25219;52.244;21.006;2023-04-24T08:15:53;14.03;;;6.23;;
39540;SDS011;25219;52.244;21.006;2023-04-24T08:18:19;11.20;;;6.83;;
39540;SDS011;25219;52.244;21.006;2023-04-24T08:20:44;13.95;;;7.03;;
39540;SDS011;25219;52.244;21.006;2023-04-24T08:23:10;15.77;;;7.28;;
39540;SDS011;25219;52.244;21.006;2023-04-24T08:25:35;9.90;;;6.97;;
39540;SDS011;25219;52.244;21.006;2023-04-24T08:28:02;11.20;;;6.17;;
39540;SDS011;25219;52.244;21.006;2023-04-24T08:30:28;12.55;;;6.85;;
39540;SDS011;25219;52.244;21.006;2023-04-24T08:32:53;15.63;;;8.27;;
39540;SDS011;25219;52.244;21.006;2023-04-24T08:35:18;15.43;;;6.57;;
39540;SDS011;25219;52.244;21.006;2023-04-24T08:37:43;15.57;;;7.03;;
39540;SDS011;25219;52.244;21.006;2023-04-24T08:40:13;16.93;;;8.83;;
39540;SDS011;25219;52.244;21.006;2023-04-24T08:42:39;17.90;;;7.45;;
39540;SDS011;25219;52.244;21.006;2023-04-24T08:45:06;13.43;;;6.30;;
39540;SDS011;25219;52.244;21.006;2023-04-24T08:47:31;11.02;;;7.85;;
39540;SDS011;25219;52.244;21.006;2023-04-24T08:49:57;18.67;;;7.63;;
39540;SDS011;25219;52.244;21.006;2023-04-24T08:52:24;9.63;;;6.65;;
39540;SDS011;25219;52.244;21.006;2023-04-24T08:54:50;11.90;;;6.80;;
39540;SDS011;25219;52.244;21.006;2023-04-24T08:57:17;11.25;;;6.22;;
39540;SDS011;25219;52.244;21.006;2023-04-24T08:59:42;12.98;;;7.03;;
39540;SDS011;25219;52.244;21.006;2023-04-24T09:02:10;14.30;;;6.85;;
39540;SDS011;25219;52.244;21.006;2023-04-24T09:04:35;16.98;;;6.70;;
39540;SDS011;25219;52.244;21.006;2023-04-24T09:07:01;15.25;;;6.45;;
39540;SDS011;25219;52.244;21.006;2023-04-24T09:09:26;11.95;;;6.82;;
39540;SDS011;25219;52.244;21.006;2023-04-24T09:11:52;9.55;;;6.30;;
39540;SDS011;25219;52.244;21.006;2023-04-24T09:14:20;10.77;;;5.50;;
39540;SDS011;25219;52.244;21.006;2023-04-24T09:16:46;10.63;;;5.47;;
39540;SDS011;25219;52.244;21.006;2023-04-24T09:19:11;19.05;;;5.82;;
39540;SDS011;25219;52.244;21.006;2023-04-24T09:21:37;14.35;;;5.43;;
39540;SDS011;25219;52.244;21.006;2023-04-24T09:24:06;14.13;;;6.07;;
39540;SDS011;25219;52.244;21.006;2023-04-24T09:26:34;11.00;;;5.75;;
39540;SDS011;25219;52.244;21.006;2023-04-24T09:28:59;10.25;;;5.50;;
39540;SDS011;25219;52.244;21.006;2023-04-24T09:31:26;15.38;;;6.30;;
39540;SDS011;25219;52.244;21.006;2023-04-24T09:33:55;9.93;;;5.55;;
39540;SDS011;25219;52.244;21.006;2023-04-24T09:36:54;13.77;;;5.32;;
39540;SDS011;25219;52.244;21.006;2023-04-24T09:39:14;12.63;;;5.05;;
39540;SDS011;25219;52.244;21.006;2023-04-24T09:44:14;8.65;;;4.97;;
39540;SDS011;25219;52.244;21.006;2023-04-24T09:46:46;10.75;;;5.13;;
39540;SDS011;25219;52.244;21.006;2023-04-24T09:49:14;11.23;;;5.07;;
39540;SDS011;25219;52.244;21.006;2023-04-24T09:51:42;9.82;;;4.80;;
39540;SDS011;25219;52.244;21.006;2023-04-24T09:54:14;13.07;;;5.50;;
39540;SDS011;25219;52.244;21.006;2023-04-24T09:56:44;6.93;;;4.13;;
39540;SDS011;25219;52.244;21.006;2023-04-24T09:59:10;14.48;;;5.40;;
39540;SDS011;25219;52.244;21.006;2023-04-24T10:01:35;12.75;;;4.90;;
39540;SDS011;25219;52.244;21.006;2023-04-24T10:04:01;8.48;;;4.63;;
39540;SDS011;25219;52.244;21.006;2023-04-24T10:06:31;9.18;;;4.80;;
39540;SDS011;25219;52.244;21.006;2023-04-24T10:08:56;20.15;;;6.25;;
39540;SDS011;25219;52.244;21.006;2023-04-24T10:11:23;10.75;;;5.15;;
39540;SDS011;25219;52.244;21.006;2023-04-24T10:13:49;8.57;;;5.68;;
39540;SDS011;25219;52.244;21.006;2023-04-24T10:16:14;13.17;;;6.07;;
39540;SDS011;25219;52.244;21.006;2023-04-24T10:18:39;13.10;;;5.15;;
39540;SDS011;25219;52.244;21.006;2023-04-24T10:21:05;12.90;;;6.03;;
39540;SDS011;25219;52.244;21.006;2023-04-24T10:23:30;20.63;;;5.43;;
39540;SDS011;25219;52.244;21.006;2023-04-24T10:25:55;10.45;;;4.82;;
39540;SDS011;25219;52.244;21.006;2023-04-24T10:28:21;9.00;;;5.78;;
39540;SDS011;25219;52.244;21.006;2023-04-24T10:30:47;9.13;;;5.18;;
39540;SDS011;25219;52.244;21.006;2023-04-24T10:33:12;7.13;;;5.73;;
39540;SDS011;25219;52.244;21.006;2023-04-24T10:35:40;9.98;;;6.15;;
39540;SDS011;25219;52.244;21.006;2023-04-24T10:38:08;9.45;;;5.88;;
39540;SDS011;25219;52.244;21.006;2023-04-24T10:40:34;8.27;;;5.35;;
39540;SDS011;25219;52.244;21.006;2023-04-24T10:43:03;13.48;;;6.18;;
39540;SDS011;25219;52.244;21.006;2023-04-24T10:45:36;10.07;;;5.75;;
39540;SDS011;25219;52.244;21.006;2023-04-24T10:48:02;10.23;;;5.70;;
39540;SDS011;25219;52.244;21.006;2023-04-24T10:50:28;10.73;;;6.28;;
39540;SDS011;25219;52.244;21.006;2023-04-24T10:52:54;10.77;;;6.00;;
39540;SDS011;25219;52.244;21.006;2023-04-24T10:55:40;16.65;;;6.60;;
39540;SDS011;25219;52.244;21.006;2023-04-24T10:58:05;10.02;;;5.90;;
39540;SDS011;25219;52.244;21.006;2023-04-24T11:00:31;11.75;;;5.63;;
39540;SDS011;25219;52.244;21.006;2023-04-24T11:02:56;16.43;;;5.83;;
39540;SDS011;25219;52.244;21.006;2023-04-24T11:05:22;12.40;;;4.88;;
39540;SDS011;25219;52.244;21.006;2023-04-24T11:10:40;5.43;;;4.15;;
39540;SDS011;25219;52.244;21.006;2023-04-24T11:13:06;7.40;;;4.65;;
39540;SDS011;25219;52.244;21.006;2023-04-24T11:15:31;8.48;;;4.13;;
39540;SDS011;25219;52.244;21.006;2023-04-24T11:17:56;8.67;;;4.57;;
39540;SDS011;25219;52.244;21.006;2023-04-24T11:20:23;11.57;;;4.70;;
39540;SDS011;25219;52.244;21.006;2023-04-24T11:22:48;8.13;;;4.63;;
39540;SDS011;25219;52.244;21.006;2023-04-24T11:25:17;8.95;;;4.50;;
39540;SDS011;25219;52.244;21.006;2023-04-24T11:27:42;9.50;;;5.40;;
39540;SDS011;25219;52.244;21.006;2023-04-24T11:30:08;17.70;;;5.60;;
39540;SDS011;25219;52.244;21.006;2023-04-24T11:32:42;12.85;;;4.85;;
39540;SDS011;25219;52.244;21.006;2023-04-24T11:37:42;6.18;;;4.40;;
39540;SDS011;25219;52.244;21.006;2023-04-24T11:40:10;9.10;;;4.38;;
39540;SDS011;25219;52.244;21.006;2023-04-24T11:42:36;8.75;;;4.35;;
39540;SDS011;25219;52.244;21.006;2023-04-24T11:45:02;11.80;;;4.65;;
39540;SDS011;25219;52.244;21.006;2023-04-24T11:47:32;6.47;;;4.40;;
39540;SDS011;25219;52.244;21.006;2023-04-24T11:49:58;7.10;;;4.25;;
39540;SDS011;25219;52.244;21.006;2023-04-24T11:52:24;5.65;;;4.55;;
39540;SDS011;25219;52.244;21.006;2023-04-24T11:54:50;6.95;;;4.00;;
39540;SDS011;25219;52.244;21.006;2023-04-24T11:57:15;6.47;;;3.90;;
39540;SDS011;25219;52.244;21.006;2023-04-24T11:59:41;5.88;;;4.35;;
39540;SDS011;25219;52.244;21.006;2023-04-24T12:02:06;9.73;;;4.67;;
39540;SDS011;25219;52.244;21.006;2023-04-24T12:04:38;10.73;;;4.68;;
39540;SDS011;25219;52.244;21.006;2023-04-24T12:07:04;18.35;;;4.93;;
39540;SDS011;25219;52.244;21.006;2023-04-24T12:10:06;12.90;;;4.85;;
39540;SDS011;25219;52.244;21.006;2023-04-24T12:12:28;6.95;;;3.58;;
39540;SDS011;25219;52.244;21.006;2023-04-24T12:14:54;8.30;;;3.72;;
39540;SDS011;25219;52.244;21.006;2023-04-24T12:17:29;8.80;;;4.30;;
39540;SDS011;25219;52.244;21.006;2023-04-24T12:19:59;10.30;;;4.60;;
39540;SDS011;25219;52.244;21.006;2023-04-24T12:22:25;6.47;;;4.88;;
39540;SDS011;25219;52.244;21.006;2023-04-24T12:24:57;9.77;;;4.93;;
39540;SDS011;25219;52.244;21.006;2023-04-24T12:27:23;4.80;;;4.00;;
39540;SDS011;25219;52.244;21.006;2023-04-24T12:29:52;9.33;;;4.40;;
39540;SDS011;25219;52.244;21.006;2023-04-24T12:32:18;6.50;;;4.15;;
39540;SDS011;25219;52.244;21.006;2023-04-24T12:34:43;7.30;;;3.87;;
39540;SDS011;25219;52.244;21.006;2023-04-24T12:37:11;7.10;;;3.87;;
39540;SDS011;25219;52.244;21.006;2023-04-24T12:39:37;7.70;;;4.75;;
39540;SDS011;25219;52.244;21.006;2023-04-24T12:42:02;11.87;;;4.63;;
39540;SDS011;25219;52.244;21.006;2023-04-24T12:46:56;9.57;;;4.95;;
39540;SDS011;25219;52.244;21.006;2023-04-24T12:49:21;10.67;;;4.87;;
39540;SDS011;25219;52.244;21.006;2023-04-24T12:51:46;15.97;;;3.90;;
39540;SDS011;25219;52.244;21.006;2023-04-24T12:54:12;14.77;;;3.60;;
39540;SDS011;25219;52.244;21.006;2023-04-24T12:56:37;18.03;;;3.60;;
39540;SDS011;25219;52.244;21.006;2023-04-24T12:59:04;12.93;;;3.40;;
39540;SDS011;25219;52.244;21.006;2023-04-24T13:01:30;15.10;;;3.53;;
39540;SDS011;25219;52.244;21.006;2023-04-24T13:03:55;14.60;;;3.43;;
39540;SDS011;25219;52.244;21.006;2023-04-24T13:06:20;18.00;;;4.07;;
39540;SDS011;25219;52.244;21.006;2023-04-24T13:08:46;16.70;;;3.08;;
39540;SDS011;25219;52.244;21.006;2023-04-24T13:11:12;6.60;;;2.83;;
39540;SDS011;25219;52.244;21.006;2023-04-24T13:13:37;9.33;;;3.20;;
39540;SDS011;25219;52.244;21.006;2023-04-24T13:16:03;17.13;;;2.70;;
39540;SDS011;25219;52.244;21.006;2023-04-24T13:18:28;6.68;;;2.50;;
39540;SDS011;25219;52.244;21.006;2023-04-24T13:20:53;11.77;;;2.83;;
39540;SDS011;25219;52.244;21.006;2023-04-24T13:23:18;9.23;;;2.70;;
39540;SDS011;25219;52.244;21.006;2023-04-24T13:25:44;7.93;;;3.10;;
39540;SDS011;25219;52.244;21.006;2023-04-24T13:28:09;10.63;;;4.07;;
39540;SDS011;25219;52.244;21.006;2023-04-24T13:30:34;10.18;;;3.60;;
39540;SDS011;25219;52.244;21.006;2023-04-24T13:33:00;11.60;;;3.22;;
39540;SDS011;25219;52.244;21.006;2023-04-24T13:35:25;14.57;;;2.88;;
39540;SDS011;25219;52.244;21.006;2023-04-24T13:37:50;9.20;;;2.47;;
39540;SDS011;25219;52.244;21.006;2023-04-24T13:40:15;6.18;;;2.53;;
39540;SDS011;25219;52.244;21.006;2023-04-24T13:42:41;7.03;;;2.80;;
39540;SDS011;25219;52.244;21.006;2023-04-24T13:45:06;4.27;;;2.43;;
39540;SDS011;25219;52.244;21.006;2023-04-24T13:47:31;7.47;;;2.60;;
39540;SDS011;25219;52.244;21.006;2023-04-24T13:49:57;7.50;;;2.87;;
39540;SDS011;25219;52.244;21.006;2023-04-24T13:52:22;5.53;;;2.87;;
39540;SDS011;25219;52.244;21.006;2023-04-24T13:54:47;8.02;;;2.70;;
39540;SDS011;25219;52.244;21.006;2023-04-24T13:57:13;16.92;;;4.18;;
39540;SDS011;25219;52.244;21.006;2023-04-24T13:59:38;8.55;;;3.00;;
39540;SDS011;25219;52.244;21.006;2023-04-24T14:02:04;4.80;;;2.83;;
39540;SDS011;25219;52.244;21.006;2023-04-24T14:04:29;6.43;;;3.10;;
39540;SDS011;25219;52.244;21.006;2023-04-24T14:06:55;7.67;;;3.60;;
39540;SDS011;25219;52.244;21.006;2023-04-24T14:09:20;13.80;;;3.47;;
39540;SDS011;25219;52.244;21.006;2023-04-24T14:11:45;4.57;;;2.50;;
39540;SDS011;25219;52.244;21.006;2023-04-24T14:14:11;3.27;;;2.40;;
39540;SDS011;25219;52.244;21.006;2023-04-24T14:16:36;6.22;;;2.67;;
39540;SDS011;25219;52.244;21.006;2023-04-24T14:19:01;5.93;;;2.93;;
39540;SDS011;25219;52.244;21.006;2023-04-24T14:21:27;8.05;;;2.63;;
39540;SDS011;25219;52.244;21.006;2023-04-24T14:23:52;5.13;;;2.87;;
39540;SDS011;25219;52.244;21.006;2023-04-24T14:26:17;6.87;;;2.70;;